createdAt,value
2019-03-27T00:00:58.649Z,9.05
2019-03-27T00:02:04.657Z,8.30
2019-03-27T00:03:10.329Z,8.28
2019-03-27T00:04:15.897Z,8.85
2019-03-27T00:05:22.309Z,9.38
2019-03-27T00:06:27.904Z,9.00
2019-03-27T00:07:33.451Z,9.45
2019-03-27T00:08:39.087Z,9.65
2019-03-27T00:09:44.761Z,9.23
2019-03-27T00:10:50.381Z,9.28
2019-03-27T00:11:56.235Z,8.80
2019-03-27T00:13:01.936Z,8.43
2019-03-27T00:14:07.508Z,9.65
2019-03-27T00:15:13.954Z,9.58
2019-03-27T00:16:19.563Z,9.90
2019-03-27T00:17:25.105Z,9.38
2019-03-27T00:18:31.492Z,10.48
2019-03-27T00:19:37.413Z,8.90
2019-03-27T00:20:44.604Z,10.68
2019-03-27T00:21:50.549Z,9.35
2019-03-27T00:22:56.187Z,9.25
2019-03-27T00:24:02.299Z,10.32
2019-03-27T00:25:08.411Z,8.90
2019-03-27T00:26:14.079Z,10.20
2019-03-27T00:27:19.658Z,8.48
2019-03-27T00:28:25.247Z,10.68
2019-03-27T00:29:30.900Z,10.78
2019-03-27T00:30:36.790Z,9.60
2019-03-27T00:31:42.496Z,9.90
2019-03-27T00:32:48.109Z,10.60
2019-03-27T00:33:53.747Z,9.80
2019-03-27T00:34:59.491Z,11.63
2019-03-27T00:36:05.160Z,10.15
2019-03-27T00:37:11.264Z,9.88
2019-03-27T00:38:16.877Z,9.48
2019-03-27T00:39:22.881Z,9.63
2019-03-27T00:40:28.463Z,12.58
2019-03-27T00:41:34.742Z,10.93
2019-03-27T00:42:40.402Z,10.23
2019-03-27T00:43:46.058Z,9.88
2019-03-27T00:44:51.665Z,10.32
2019-03-27T00:45:57.326Z,9.10
2019-03-27T00:47:03.047Z,10.15
2019-03-27T00:48:08.764Z,9.65
2019-03-27T00:49:14.362Z,10.20
2019-03-27T00:50:20.646Z,9.90
2019-03-27T00:51:26.649Z,9.48
2019-03-27T00:52:32.167Z,10.25
2019-03-27T00:53:37.785Z,10.63
2019-03-27T00:54:43.482Z,10.35
2019-03-27T00:55:49.120Z,8.73
2019-03-27T00:56:54.640Z,9.53
2019-03-27T00:58:00.291Z,9.55
2019-03-27T00:59:06.257Z,10.48
2019-03-27T01:00:22.210Z,10.45
2019-03-27T01:01:27.793Z,8.75
2019-03-27T01:02:33.425Z,9.38
2019-03-27T01:03:39.071Z,8.78
2019-03-27T01:04:45.031Z,9.03
2019-03-27T01:05:50.643Z,9.88
2019-03-27T01:06:56.341Z,9.60
2019-03-27T01:08:01.931Z,9.63
2019-03-27T01:09:07.609Z,9.43
2019-03-27T01:10:13.398Z,9.85
2019-03-27T01:11:19.201Z,10.10
2019-03-27T01:12:24.870Z,10.75
2019-03-27T01:13:30.528Z,9.60
2019-03-27T01:14:36.272Z,9.55
2019-03-27T01:15:41.831Z,10.28
2019-03-27T01:16:47.504Z,10.80
2019-03-27T01:17:53.103Z,9.90
2019-03-27T01:18:58.689Z,9.95
2019-03-27T01:20:04.672Z,10.48
2019-03-27T01:21:10.437Z,10.35
2019-03-27T01:22:16.041Z,11.15
2019-03-27T01:23:21.755Z,9.60
2019-03-27T01:24:27.786Z,10.28
2019-03-27T01:25:33.361Z,10.55
2019-03-27T01:26:39.053Z,9.70
2019-03-27T01:27:44.610Z,11.00
2019-03-27T01:28:50.240Z,9.85
2019-03-27T01:29:56.107Z,9.53
2019-03-27T01:31:07.190Z,10.18
2019-03-27T01:32:10.383Z,10.08
2019-03-27T01:33:17.216Z,10.90
2019-03-27T01:34:22.957Z,9.98
2019-03-27T01:35:28.792Z,11.22
2019-03-27T01:36:34.431Z,11.65
2019-03-27T01:37:40.542Z,10.55
2019-03-27T01:38:46.613Z,11.53
2019-03-27T01:39:52.228Z,12.13
2019-03-27T01:40:57.974Z,13.53
2019-03-27T01:42:03.707Z,11.15
2019-03-27T01:43:09.736Z,12.28
2019-03-27T01:44:15.411Z,11.22
2019-03-27T01:45:20.959Z,10.82
2019-03-27T01:46:26.556Z,11.40
2019-03-27T01:47:32.223Z,10.82
2019-03-27T01:48:38.193Z,12.93
2019-03-27T01:49:43.892Z,12.03
2019-03-27T01:50:49.596Z,10.93
2019-03-27T01:51:55.543Z,12.58
2019-03-27T01:53:01.208Z,13.25
2019-03-27T01:54:06.783Z,11.78
2019-03-27T01:55:12.524Z,11.63
2019-03-27T01:56:18.122Z,11.25
2019-03-27T01:57:23.796Z,12.25
2019-03-27T01:58:29.752Z,11.80
2019-03-27T02:01:53.274Z,12.25
2019-03-27T02:02:59.094Z,13.20
2019-03-27T02:04:04.628Z,13.65
2019-03-27T02:05:10.993Z,12.63
2019-03-27T02:06:16.584Z,12.05
2019-03-27T02:07:22.298Z,13.78
2019-03-27T02:08:27.896Z,13.95
2019-03-27T02:09:33.778Z,12.43
2019-03-27T02:10:39.838Z,14.70
2019-03-27T02:11:45.361Z,12.28
2019-03-27T02:12:51.280Z,13.32
2019-03-27T02:13:56.954Z,13.18
2019-03-27T02:15:02.595Z,13.25
2019-03-27T02:16:08.239Z,13.32
2019-03-27T02:17:13.798Z,13.35
2019-03-27T02:18:19.307Z,13.15
2019-03-27T02:19:24.842Z,14.03
2019-03-27T02:20:30.484Z,14.73
2019-03-27T02:21:36.075Z,15.38
2019-03-27T02:22:42.332Z,12.63
2019-03-27T02:23:47.844Z,13.53
2019-03-27T02:24:53.674Z,14.10
2019-03-27T02:25:59.673Z,13.62
2019-03-27T02:27:05.287Z,13.90
2019-03-27T02:28:11.365Z,13.18
2019-03-27T02:29:16.918Z,15.10
2019-03-27T02:30:22.502Z,13.58
2019-03-27T02:31:28.554Z,15.03
2019-03-27T02:32:34.147Z,14.50
2019-03-27T02:33:40.071Z,14.53
2019-03-27T02:34:45.753Z,15.78
2019-03-27T02:35:51.400Z,14.80
2019-03-27T02:36:57.635Z,15.53
2019-03-27T02:38:03.259Z,16.75
2019-03-27T02:39:08.892Z,15.38
2019-03-27T02:40:14.834Z,14.83
2019-03-27T02:41:20.385Z,15.32
2019-03-27T02:42:26.346Z,15.23
2019-03-27T02:43:31.882Z,15.53
2019-03-27T02:44:37.713Z,14.83
2019-03-27T02:45:43.316Z,14.95
2019-03-27T02:46:48.773Z,15.72
2019-03-27T02:47:54.275Z,14.78
2019-03-27T02:48:59.787Z,17.65
2019-03-27T02:50:05.680Z,15.00
2019-03-27T02:51:11.227Z,16.57
2019-03-27T02:52:17.132Z,16.57
2019-03-27T02:53:22.906Z,15.83
2019-03-27T02:54:28.402Z,16.23
2019-03-27T02:55:36.466Z,17.77
2019-03-27T02:56:41.970Z,16.48
2019-03-27T02:57:47.952Z,14.47
2019-03-27T02:58:53.446Z,14.47
2019-03-27T02:59:59.424Z,17.35
2019-03-27T03:01:05.429Z,16.90
2019-03-27T03:02:10.934Z,18.50
2019-03-27T03:03:16.586Z,15.63
2019-03-27T03:04:22.060Z,15.60
2019-03-27T03:05:27.630Z,16.30
2019-03-27T03:06:33.237Z,15.75
2019-03-27T03:07:38.877Z,18.05
2019-03-27T03:08:44.420Z,15.60
2019-03-27T03:09:50.225Z,16.82
2019-03-27T03:10:55.755Z,17.05
2019-03-27T03:12:01.338Z,16.93
2019-03-27T03:13:06.957Z,17.90
2019-03-27T03:14:12.554Z,17.30
2019-03-27T03:15:22.591Z,17.10
2019-03-27T03:16:41.343Z,17.67
2019-03-27T03:17:36.313Z,16.02
2019-03-27T03:18:41.913Z,16.50
2019-03-27T03:19:47.742Z,17.42
2019-03-27T03:20:53.350Z,18.15
2019-03-27T03:21:59.279Z,17.40
2019-03-27T03:23:05.151Z,16.73
2019-03-27T03:24:10.819Z,17.42
2019-03-27T03:25:16.707Z,19.45
2019-03-27T03:26:22.226Z,17.27
2019-03-27T03:27:27.834Z,17.60
2019-03-27T03:28:33.424Z,17.42
2019-03-27T03:29:39.314Z,17.17
2019-03-27T03:30:44.890Z,16.93
2019-03-27T03:31:50.549Z,17.73
2019-03-27T03:32:56.304Z,16.82
2019-03-27T03:34:02.200Z,18.98
2019-03-27T03:35:08.028Z,19.02
2019-03-27T03:36:13.713Z,19.42
2019-03-27T03:37:19.567Z,19.52
2019-03-27T03:38:25.156Z,18.50
2019-03-27T03:39:30.727Z,19.50
2019-03-27T03:40:36.359Z,18.02
2019-03-27T03:41:42.108Z,18.42
2019-03-27T03:42:47.628Z,17.10
2019-03-27T03:43:53.553Z,17.75
2019-03-27T03:44:59.153Z,18.30
2019-03-27T03:46:04.986Z,19.37
2019-03-27T03:47:12.643Z,17.85
2019-03-27T03:48:18.257Z,17.02
2019-03-27T03:49:23.695Z,20.37
2019-03-27T03:50:47.484Z,20.55
2019-03-27T03:51:56.561Z,19.40
2019-03-27T03:53:02.633Z,19.23
2019-03-27T03:54:08.593Z,18.12
2019-03-27T03:55:14.176Z,18.87
2019-03-27T03:56:21.997Z,18.77
2019-03-27T03:57:30.000Z,19.37
2019-03-27T03:58:37.591Z,19.10
2019-03-27T03:59:44.086Z,19.87
2019-03-27T04:00:50.407Z,19.62
2019-03-27T04:01:56.123Z,19.82
2019-03-27T04:03:03.814Z,19.25
2019-03-27T04:04:11.074Z,18.23
2019-03-27T04:05:19.972Z,19.52
2019-03-27T04:06:25.641Z,21.20
2019-03-27T04:07:31.332Z,19.40
2019-03-27T04:08:36.944Z,19.67
2019-03-27T04:09:42.525Z,18.37
2019-03-27T04:10:48.635Z,19.87
2019-03-27T04:11:54.099Z,22.07
2019-03-27T04:12:59.690Z,19.62
2019-03-27T04:14:05.765Z,21.07
2019-03-27T04:15:11.736Z,20.10
2019-03-27T04:16:17.274Z,19.82
2019-03-27T04:17:22.906Z,19.80
2019-03-27T04:18:28.521Z,22.22
2019-03-27T04:19:34.030Z,20.12
2019-03-27T04:20:39.891Z,20.08
2019-03-27T04:21:45.795Z,19.42
2019-03-27T04:22:51.646Z,18.85
2019-03-27T04:23:57.191Z,19.87
2019-03-27T04:25:03.179Z,20.05
2019-03-27T04:26:10.791Z,19.62
2019-03-27T04:27:16.239Z,20.32
2019-03-27T04:28:21.904Z,19.95
2019-03-27T04:29:29.662Z,21.17
2019-03-27T04:30:35.401Z,20.45
2019-03-27T04:31:41.236Z,20.17
2019-03-27T04:32:47.326Z,20.45
2019-03-27T04:33:52.824Z,18.82
2019-03-27T04:34:58.357Z,20.40
2019-03-27T04:36:03.935Z,17.95
2019-03-27T04:37:09.907Z,20.10
2019-03-27T04:38:15.445Z,19.17
2019-03-27T04:39:21.322Z,21.27
2019-03-27T04:40:27.010Z,21.00
2019-03-27T04:41:32.616Z,21.07
2019-03-27T04:42:38.112Z,21.55
2019-03-27T04:43:43.710Z,20.80
2019-03-27T04:44:49.291Z,19.25
2019-03-27T04:45:54.905Z,18.80
2019-03-27T04:47:00.396Z,21.42
2019-03-27T04:48:06.043Z,21.45
2019-03-27T04:49:11.711Z,18.12
2019-03-27T04:50:17.211Z,19.98
2019-03-27T04:51:23.037Z,19.73
2019-03-27T04:52:28.499Z,20.35
2019-03-27T04:53:34.052Z,19.92
2019-03-27T04:54:39.925Z,19.20
2019-03-27T04:55:45.461Z,21.87
2019-03-27T04:56:51.057Z,20.57
2019-03-27T04:57:56.672Z,19.30
2019-03-27T04:59:02.423Z,19.25
2019-03-27T05:00:08.499Z,20.37
2019-03-27T05:01:14.268Z,21.25
2019-03-27T05:02:19.936Z,19.55
2019-03-27T05:03:25.761Z,22.80
2019-03-27T05:04:31.855Z,20.37
2019-03-27T05:05:37.439Z,22.07
2019-03-27T05:06:43.075Z,18.95
2019-03-27T05:07:48.714Z,22.75
2019-03-27T05:08:54.377Z,20.08
2019-03-27T05:09:59.981Z,20.20
2019-03-27T05:11:05.860Z,22.22
2019-03-27T05:12:11.417Z,25.08
2019-03-27T05:13:17.073Z,20.90
2019-03-27T05:14:22.980Z,20.75
2019-03-27T05:15:28.575Z,21.37
2019-03-27T05:16:34.206Z,21.07
2019-03-27T05:17:45.956Z,22.07
2019-03-27T05:18:46.963Z,20.60
2019-03-27T05:19:52.487Z,20.82
2019-03-27T05:20:58.361Z,22.30
2019-03-27T05:22:04.021Z,21.57
2019-03-27T05:23:09.565Z,20.88
2019-03-27T05:24:15.144Z,22.07
2019-03-27T05:25:20.727Z,21.93
2019-03-27T05:26:28.724Z,23.50
2019-03-27T05:27:36.336Z,23.20
2019-03-27T05:28:42.339Z,24.55
2019-03-27T05:29:48.260Z,23.98
2019-03-27T05:30:53.941Z,23.60
2019-03-27T05:31:59.604Z,23.42
2019-03-27T05:33:05.179Z,21.77
2019-03-27T05:34:10.792Z,22.05
2019-03-27T05:35:16.433Z,22.00
2019-03-27T05:36:22.107Z,23.20
2019-03-27T05:37:28.104Z,23.87
2019-03-27T05:38:33.585Z,26.10
2019-03-27T05:39:39.520Z,22.48
2019-03-27T05:40:45.473Z,22.95
2019-03-27T05:41:51.396Z,23.02
2019-03-27T05:43:01.083Z,24.10
2019-03-27T05:44:04.671Z,23.62
2019-03-27T05:45:16.491Z,23.05
2019-03-27T05:46:22.431Z,22.85
2019-03-27T05:47:28.201Z,23.38
2019-03-27T05:48:34.149Z,23.73
2019-03-27T05:49:40.033Z,23.47
2019-03-27T05:50:45.604Z,23.52
2019-03-27T05:51:51.184Z,22.00
2019-03-27T05:52:57.150Z,22.27
2019-03-27T05:54:02.750Z,22.77
2019-03-27T05:55:09.022Z,21.55
2019-03-27T05:56:14.614Z,21.40
2019-03-27T05:57:20.231Z,22.05
2019-03-27T05:58:25.954Z,21.87
2019-03-27T05:59:31.640Z,21.97
2019-03-27T06:00:37.133Z,24.52
2019-03-27T06:01:42.778Z,23.83
2019-03-27T06:02:48.716Z,22.27
2019-03-27T06:03:54.283Z,24.07
2019-03-27T06:05:00.601Z,22.27
2019-03-27T06:06:06.205Z,24.15
2019-03-27T06:07:12.037Z,22.77
2019-03-27T06:08:17.931Z,23.75
2019-03-27T06:09:23.953Z,23.35
2019-03-27T06:10:29.919Z,23.10
2019-03-27T06:11:35.825Z,22.07
2019-03-27T06:12:41.719Z,24.27
2019-03-27T06:13:47.622Z,22.50
2019-03-27T06:14:53.205Z,22.85
2019-03-27T06:15:58.686Z,26.25
2019-03-27T06:17:04.797Z,23.25
2019-03-27T06:18:13.348Z,22.25
2019-03-27T06:19:18.114Z,22.17
2019-03-27T06:20:24.599Z,22.85
2019-03-27T06:21:30.412Z,22.93
2019-03-27T06:22:36.029Z,22.55
2019-03-27T06:23:41.950Z,23.87
2019-03-27T06:24:47.483Z,23.77
2019-03-27T06:25:53.278Z,23.77
2019-03-27T06:26:58.766Z,23.60
2019-03-27T06:28:04.365Z,22.73
2019-03-27T06:29:09.864Z,23.02
2019-03-27T06:30:15.644Z,23.10
2019-03-27T06:31:21.213Z,23.73
2019-03-27T06:32:26.997Z,23.75
2019-03-27T06:33:32.915Z,22.37
2019-03-27T06:34:39.151Z,22.13
2019-03-27T06:35:44.826Z,24.25
2019-03-27T06:36:50.775Z,23.20
2019-03-27T06:37:56.587Z,21.65
2019-03-27T06:39:02.174Z,24.72
2019-03-27T06:40:08.959Z,23.90
2019-03-27T06:41:14.501Z,23.55
2019-03-27T06:42:20.172Z,23.80
2019-03-27T06:43:26.390Z,24.70
2019-03-27T06:44:32.096Z,23.30
2019-03-27T06:45:37.679Z,23.90
2019-03-27T06:46:43.237Z,22.80
2019-03-27T06:47:49.163Z,22.15
2019-03-27T06:48:55.102Z,23.60
2019-03-27T06:50:01.119Z,25.55
2019-03-27T06:51:07.236Z,22.60
2019-03-27T06:52:13.576Z,22.58
2019-03-27T06:53:19.213Z,23.77
2019-03-27T06:54:25.081Z,24.90
2019-03-27T06:55:30.620Z,23.80
2019-03-27T06:56:36.375Z,23.47
2019-03-27T06:57:43.123Z,24.67
2019-03-27T06:58:54.755Z,22.17
2019-03-27T06:59:56.774Z,25.20
2019-03-27T07:01:02.358Z,25.70
2019-03-27T07:02:07.965Z,25.68
2019-03-27T07:03:13.593Z,24.37
2019-03-27T07:04:19.578Z,25.92
2019-03-27T07:05:25.271Z,25.45
2019-03-27T07:06:30.704Z,25.10
2019-03-27T07:07:36.362Z,27.40
2019-03-27T07:08:41.958Z,24.35
2019-03-27T07:09:47.417Z,26.95
2019-03-27T07:10:53.243Z,27.60
2019-03-27T07:11:59.160Z,28.12
2019-03-27T07:13:04.922Z,32.20
2019-03-27T07:14:11.101Z,27.42
2019-03-27T07:15:16.766Z,27.65
2019-03-27T07:16:22.351Z,27.13
2019-03-27T07:17:28.021Z,26.10
2019-03-27T07:18:40.009Z,25.82
2019-03-27T07:19:40.908Z,25.32
2019-03-27T07:20:46.679Z,27.42
2019-03-27T07:21:52.991Z,27.15
2019-03-27T07:22:58.591Z,25.82
2019-03-27T07:24:04.599Z,24.85
2019-03-27T07:25:12.070Z,26.85
2019-03-27T07:26:17.945Z,25.43
2019-03-27T07:27:23.519Z,25.77
2019-03-27T07:28:29.120Z,27.37
2019-03-27T07:29:34.617Z,26.55
2019-03-27T07:30:40.175Z,27.95
2019-03-27T07:31:45.751Z,30.77
2019-03-27T07:32:51.295Z,27.65
2019-03-27T07:33:57.224Z,29.67
2019-03-27T07:35:02.897Z,29.25
2019-03-27T07:36:08.466Z,27.50
2019-03-27T07:37:14.904Z,28.73
2019-03-27T07:38:21.003Z,27.75
2019-03-27T07:39:27.374Z,27.27
2019-03-27T07:40:33.085Z,25.85
2019-03-27T07:41:39.014Z,27.80
2019-03-27T07:42:44.863Z,26.50
2019-03-27T07:43:50.430Z,24.43
2019-03-27T07:44:56.034Z,24.20
2019-03-27T07:46:01.687Z,24.95
2019-03-27T07:47:08.920Z,22.05
2019-03-27T07:48:14.471Z,22.82
2019-03-27T07:49:20.064Z,25.50
2019-03-27T07:50:25.779Z,25.97
2019-03-27T07:51:31.463Z,24.92
2019-03-27T07:52:37.351Z,25.92
2019-03-27T07:53:42.958Z,25.40
2019-03-27T07:54:48.617Z,26.82
2019-03-27T07:55:54.221Z,26.82
2019-03-27T07:57:00.124Z,26.23
2019-03-27T07:58:06.059Z,26.27
2019-03-27T07:59:11.588Z,26.52
2019-03-27T08:00:18.147Z,27.15
2019-03-27T08:01:23.760Z,25.60
2019-03-27T08:02:30.095Z,26.82
2019-03-27T08:03:35.680Z,23.27
2019-03-27T08:04:41.707Z,24.50
2019-03-27T08:05:47.208Z,25.82
2019-03-27T08:06:53.067Z,22.45
2019-03-27T08:07:58.637Z,22.98
2019-03-27T08:09:05.135Z,23.65
2019-03-27T08:10:10.981Z,23.07
2019-03-27T08:11:16.821Z,24.05
2019-03-27T08:12:22.303Z,24.32
2019-03-27T08:13:27.951Z,24.05
2019-03-27T08:14:33.580Z,24.37
2019-03-27T08:15:40.826Z,23.30
2019-03-27T08:16:46.631Z,22.82
2019-03-27T08:17:52.660Z,24.25
2019-03-27T08:19:07.361Z,24.95
2019-03-27T08:20:06.462Z,23.55
2019-03-27T08:21:12.746Z,23.92
2019-03-27T08:22:18.286Z,25.72
2019-03-27T08:23:23.863Z,22.13
2019-03-27T08:24:29.474Z,22.70
2019-03-27T08:25:34.986Z,23.30
2019-03-27T08:26:40.572Z,23.07
2019-03-27T08:27:46.131Z,23.05
2019-03-27T08:28:51.621Z,22.93
2019-03-27T08:29:57.449Z,21.10
2019-03-27T08:31:03.020Z,21.35
2019-03-27T08:32:08.741Z,20.30
2019-03-27T08:33:14.371Z,21.00
2019-03-27T08:34:20.247Z,22.10
2019-03-27T08:35:26.019Z,20.65
2019-03-27T08:36:31.928Z,22.17
2019-03-27T08:37:37.493Z,21.77
2019-03-27T08:38:43.112Z,21.52
2019-03-27T08:39:49.057Z,20.80
2019-03-27T08:40:54.934Z,21.23
2019-03-27T08:42:00.543Z,19.40
2019-03-27T08:43:20.310Z,19.50
2019-03-27T08:44:13.591Z,20.48
2019-03-27T08:45:19.442Z,21.55
2019-03-27T08:46:25.193Z,23.15
2019-03-27T08:47:30.966Z,26.07
2019-03-27T08:48:39.231Z,21.77
2019-03-27T08:49:44.525Z,23.38
2019-03-27T08:50:50.249Z,23.98
2019-03-27T08:51:56.106Z,23.62
2019-03-27T08:53:02.025Z,20.70
2019-03-27T08:54:07.599Z,23.18
2019-03-27T08:55:14.016Z,20.37
2019-03-27T08:56:19.799Z,19.10
2019-03-27T08:57:25.370Z,19.40
2019-03-27T08:58:31.331Z,19.10
2019-03-27T08:59:36.927Z,21.30
2019-03-27T09:00:52.055Z,21.40
2019-03-27T09:01:58.040Z,19.80
2019-03-27T09:03:03.527Z,18.60
2019-03-27T09:04:09.212Z,18.48
2019-03-27T09:05:15.350Z,18.32
2019-03-27T09:06:33.159Z,17.65
2019-03-27T09:07:28.794Z,15.78
2019-03-27T09:08:34.359Z,17.60
2019-03-27T09:09:39.917Z,19.70
2019-03-27T09:10:45.635Z,19.48
2019-03-27T09:11:51.206Z,19.65
2019-03-27T09:12:56.877Z,22.05
2019-03-27T09:14:02.439Z,20.35
2019-03-27T09:15:08.884Z,20.77
2019-03-27T09:16:14.936Z,19.20
2019-03-27T09:17:20.582Z,19.23
2019-03-27T09:18:26.192Z,19.45
2019-03-27T09:19:35.882Z,21.25
2019-03-27T09:20:38.881Z,20.32
2019-03-27T09:21:44.398Z,19.60
2019-03-27T09:22:50.012Z,19.37
2019-03-27T09:23:55.476Z,17.95
2019-03-27T09:25:01.008Z,17.52
2019-03-27T09:26:06.879Z,16.85
2019-03-27T09:27:12.519Z,18.10
2019-03-27T09:28:18.126Z,16.85
2019-03-27T09:29:23.978Z,14.78
2019-03-27T09:30:29.665Z,13.98
2019-03-27T09:31:44.590Z,14.68
2019-03-27T09:32:42.645Z,15.50
2019-03-27T09:33:48.279Z,12.25
2019-03-27T09:34:53.831Z,11.68
2019-03-27T09:35:59.748Z,12.80
2019-03-27T09:37:05.823Z,13.38
2019-03-27T09:38:11.520Z,11.03
2019-03-27T09:39:17.067Z,10.98
2019-03-27T09:40:22.991Z,11.25
2019-03-27T09:41:29.011Z,11.25
2019-03-27T09:42:34.632Z,11.68
2019-03-27T09:43:40.187Z,11.20
2019-03-27T09:44:45.694Z,11.65
2019-03-27T09:45:51.624Z,12.07
2019-03-27T09:46:57.526Z,9.68
2019-03-27T09:48:03.125Z,9.93
2019-03-27T09:49:08.719Z,10.30
2019-03-27T09:50:14.851Z,10.40
2019-03-27T09:51:20.373Z,10.10
2019-03-27T09:52:25.979Z,13.78
2019-03-27T09:53:31.865Z,9.70
2019-03-27T09:54:37.702Z,11.10
2019-03-27T09:55:43.214Z,10.28
2019-03-27T09:56:48.836Z,9.60
2019-03-27T09:57:54.495Z,10.75
2019-03-27T09:59:00.553Z,9.93
2019-03-27T10:00:07.543Z,10.58
2019-03-27T10:01:13.429Z,10.28
2019-03-27T10:02:20.199Z,11.30
2019-03-27T10:03:25.742Z,9.63
2019-03-27T10:04:31.666Z,10.08
2019-03-27T10:05:37.202Z,12.60
2019-03-27T10:06:43.458Z,9.20
2019-03-27T10:07:49.349Z,10.45
2019-03-27T10:08:54.888Z,10.28
2019-03-27T10:10:00.492Z,9.78
2019-03-27T10:11:06.215Z,10.08
2019-03-27T10:12:11.805Z,10.03
2019-03-27T10:13:17.641Z,9.23
2019-03-27T10:14:23.244Z,10.35
2019-03-27T10:15:29.125Z,10.82
2019-03-27T10:16:35.136Z,8.90
2019-03-27T10:17:40.667Z,9.38
2019-03-27T10:18:47.542Z,9.25
2019-03-27T10:20:03.187Z,9.10
2019-03-27T10:21:00.756Z,8.43
2019-03-27T10:22:06.471Z,8.68
2019-03-27T10:23:12.038Z,8.13
2019-03-27T10:24:17.506Z,12.47
2019-03-27T10:25:23.124Z,9.10
2019-03-27T10:26:28.733Z,8.38
2019-03-27T10:27:34.366Z,9.28
2019-03-27T10:28:40.134Z,9.05
2019-03-27T10:29:46.031Z,10.50
2019-03-27T10:30:51.635Z,9.40
2019-03-27T10:31:57.263Z,9.15
2019-03-27T10:33:02.931Z,9.03
2019-03-27T10:34:08.640Z,8.95
2019-03-27T10:35:14.499Z,8.90
2019-03-27T10:36:20.131Z,9.28
2019-03-27T10:37:26.098Z,7.87
2019-03-27T10:38:32.431Z,7.85
2019-03-27T10:39:38.024Z,10.60
2019-03-27T10:40:43.653Z,7.78
2019-03-27T10:41:49.238Z,8.45
2019-03-27T10:42:54.755Z,8.28
2019-03-27T10:44:00.222Z,7.78
2019-03-27T10:45:06.652Z,8.48
2019-03-27T10:46:12.388Z,8.75
2019-03-27T10:47:17.917Z,7.67
2019-03-27T10:48:23.526Z,7.85
2019-03-27T10:49:28.989Z,9.23
2019-03-27T10:50:34.453Z,8.30
2019-03-27T10:51:40.063Z,8.30
2019-03-27T10:52:45.664Z,7.83
2019-03-27T10:53:51.655Z,8.43
2019-03-27T10:54:57.239Z,7.70
2019-03-27T10:56:03.032Z,5.58
2019-03-27T10:57:08.651Z,5.40
2019-03-27T10:58:14.221Z,4.70
2019-03-27T10:59:19.828Z,4.47
2019-03-27T11:00:25.729Z,5.25
2019-03-27T11:01:31.629Z,5.17
2019-03-27T11:02:37.101Z,4.83
2019-03-27T11:03:43.048Z,4.37
2019-03-27T11:04:48.758Z,3.98
2019-03-27T11:05:54.222Z,3.80
2019-03-27T11:07:00.259Z,4.37
2019-03-27T11:08:06.011Z,3.98
2019-03-27T11:09:11.683Z,4.20
2019-03-27T11:10:17.296Z,4.50
2019-03-27T11:11:23.238Z,5.35
2019-03-27T11:12:29.131Z,5.85
2019-03-27T11:13:34.852Z,6.08
2019-03-27T11:14:40.565Z,6.28
2019-03-27T11:15:46.237Z,6.00
2019-03-27T11:16:51.747Z,6.62
2019-03-27T11:17:57.402Z,6.95
2019-03-27T11:19:03.332Z,6.65
2019-03-27T11:20:09.466Z,6.97
2019-03-27T11:21:15.435Z,6.95
2019-03-27T11:22:21.007Z,6.78
2019-03-27T11:23:26.642Z,6.60
2019-03-27T11:24:32.500Z,6.85
2019-03-27T11:25:38.686Z,6.30
2019-03-27T11:26:44.175Z,7.17
2019-03-27T11:27:49.684Z,7.12
2019-03-27T11:28:55.337Z,6.47
2019-03-27T11:30:01.209Z,7.55
2019-03-27T11:31:06.789Z,7.50
2019-03-27T11:32:12.417Z,7.53
2019-03-27T11:33:18.031Z,7.12
2019-03-27T11:34:23.540Z,7.12
2019-03-27T11:35:29.527Z,7.50
2019-03-27T11:36:35.358Z,6.58
2019-03-27T11:37:41.092Z,7.80
2019-03-27T11:38:47.016Z,7.37
2019-03-27T11:39:52.689Z,6.70
2019-03-27T11:40:58.526Z,7.50
2019-03-27T11:42:04.177Z,5.65
2019-03-27T11:43:09.807Z,6.58
2019-03-27T11:44:15.609Z,6.78
2019-03-27T11:45:21.446Z,6.42
2019-03-27T11:46:27.005Z,6.50
2019-03-27T11:47:33.370Z,6.20
2019-03-27T11:48:39.249Z,6.72
2019-03-27T11:49:45.164Z,6.40
2019-03-27T11:50:50.919Z,7.40
2019-03-27T11:51:56.892Z,6.55
2019-03-27T11:53:02.605Z,7.67
2019-03-27T11:54:08.095Z,7.60
2019-03-27T11:55:13.864Z,6.65
2019-03-27T11:56:19.302Z,6.95
2019-03-27T11:57:24.876Z,7.10
2019-03-27T11:58:30.470Z,5.65
2019-03-27T11:59:35.952Z,5.65
2019-03-27T12:00:53.977Z,4.70
2019-03-27T12:01:48.887Z,5.53
2019-03-27T12:02:55.343Z,4.80
2019-03-27T12:04:00.982Z,5.92
2019-03-27T12:05:07.239Z,5.85
2019-03-27T12:06:13.056Z,6.55
2019-03-27T12:07:18.569Z,6.60
2019-03-27T12:08:24.172Z,6.75
2019-03-27T12:09:30.095Z,7.05
2019-03-27T12:10:35.696Z,6.87
2019-03-27T12:11:41.310Z,7.50
2019-03-27T12:12:48.370Z,6.42
2019-03-27T12:13:54.442Z,6.87
2019-03-27T12:15:00.411Z,6.72
2019-03-27T12:16:06.258Z,7.78
2019-03-27T12:17:11.897Z,5.72
2019-03-27T12:18:18.022Z,6.08
2019-03-27T12:19:23.473Z,5.55
2019-03-27T12:20:29.286Z,7.30
2019-03-27T12:21:34.854Z,7.22
2019-03-27T12:22:40.395Z,6.37
2019-03-27T12:23:46.325Z,6.30
2019-03-27T12:24:52.023Z,6.72
2019-03-27T12:25:57.999Z,7.05
2019-03-27T12:27:03.633Z,7.42
2019-03-27T12:28:09.313Z,7.47
2019-03-27T12:29:18.048Z,6.80
2019-03-27T12:30:23.154Z,7.30
2019-03-27T12:31:28.957Z,6.80
2019-03-27T12:32:34.498Z,6.05
2019-03-27T12:33:40.020Z,7.20
2019-03-27T12:34:45.626Z,7.00
2019-03-27T12:35:51.144Z,6.58
2019-03-27T12:36:57.101Z,6.15
2019-03-27T12:38:04.519Z,6.72
2019-03-27T12:39:10.234Z,7.47
2019-03-27T12:40:15.861Z,7.95
2019-03-27T12:41:22.690Z,6.50
2019-03-27T12:42:28.581Z,6.62
2019-03-27T12:43:34.068Z,6.80
2019-03-27T12:44:39.837Z,7.80
2019-03-27T12:45:45.701Z,6.28
2019-03-27T12:46:52.061Z,6.37
2019-03-27T12:47:57.736Z,7.20
2019-03-27T12:49:03.340Z,6.60
2019-03-27T12:50:11.036Z,6.40
2019-03-27T12:51:16.739Z,7.60
2019-03-27T12:52:22.433Z,7.08
2019-03-27T12:53:28.061Z,6.67
2019-03-27T12:54:33.592Z,6.45
2019-03-27T12:55:39.837Z,6.62
2019-03-27T12:56:45.649Z,6.28
2019-03-27T12:57:51.415Z,7.42
2019-03-27T12:58:57.288Z,6.72
2019-03-27T13:00:03.217Z,7.67
2019-03-27T13:01:08.790Z,7.17
2019-03-27T13:02:14.423Z,6.28
2019-03-27T13:03:20.184Z,7.35
2019-03-27T13:04:26.021Z,6.40
2019-03-27T13:05:31.591Z,6.20
2019-03-27T13:06:37.105Z,5.90
2019-03-27T13:07:49.902Z,6.08
2019-03-27T13:08:50.751Z,7.75
2019-03-27T13:09:56.322Z,6.28
2019-03-27T13:11:02.162Z,7.17
2019-03-27T13:12:08.030Z,5.70
2019-03-27T13:13:13.603Z,5.70
2019-03-27T13:14:19.432Z,5.85
2019-03-27T13:15:25.078Z,6.45
2019-03-27T13:16:30.819Z,6.47
2019-03-27T13:17:36.379Z,6.53
2019-03-27T13:18:42.004Z,6.30
2019-03-27T13:19:47.868Z,5.17
2019-03-27T13:20:53.661Z,7.03
2019-03-27T13:21:59.287Z,6.35
2019-03-27T13:23:04.998Z,6.95
2019-03-27T13:24:10.713Z,6.65
2019-03-27T13:25:16.365Z,5.72
2019-03-27T13:26:21.928Z,5.85
2019-03-27T13:27:28.099Z,6.40
2019-03-27T13:28:33.562Z,5.50
2019-03-27T13:29:39.173Z,6.70
2019-03-27T13:30:44.723Z,5.95
2019-03-27T13:31:50.377Z,6.78
2019-03-27T13:32:56.228Z,6.67
2019-03-27T13:34:01.863Z,6.17
2019-03-27T13:35:08.077Z,6.00
2019-03-27T13:36:14.457Z,6.30
2019-03-27T13:37:20.240Z,6.80
2019-03-27T13:38:25.991Z,6.70
2019-03-27T13:39:31.666Z,6.20
2019-03-27T13:40:37.131Z,6.65
2019-03-27T13:41:42.729Z,7.22
2019-03-27T13:42:48.361Z,6.60
2019-03-27T13:43:54.033Z,7.78
2019-03-27T13:44:59.547Z,6.20
2019-03-27T13:46:05.853Z,7.75
2019-03-27T13:47:11.477Z,8.28
2019-03-27T13:48:17.505Z,10.05
2019-03-27T13:49:23.319Z,8.38
2019-03-27T13:50:28.918Z,8.35
2019-03-27T13:51:40.365Z,9.98
2019-03-27T13:52:41.786Z,6.40
2019-03-27T13:53:47.453Z,8.13
2019-03-27T13:54:53.009Z,7.45
2019-03-27T13:55:58.957Z,6.78
2019-03-27T13:57:04.738Z,6.50
2019-03-27T13:58:10.655Z,7.75
2019-03-27T13:59:16.387Z,7.05
2019-03-27T14:00:22.338Z,7.25
2019-03-27T14:01:27.950Z,6.37
2019-03-27T14:02:33.597Z,7.00
2019-03-27T14:03:39.057Z,6.92
2019-03-27T14:04:44.733Z,6.70
2019-03-27T14:05:50.271Z,6.85
2019-03-27T14:06:55.929Z,6.95
2019-03-27T14:08:01.472Z,8.08
2019-03-27T14:09:08.605Z,6.65
2019-03-27T14:10:14.793Z,6.80
2019-03-27T14:11:20.529Z,7.22
2019-03-27T14:12:26.234Z,6.35
2019-03-27T14:13:31.971Z,6.12
2019-03-27T14:14:49.623Z,7.00
2019-03-27T14:15:45.501Z,6.30
2019-03-27T14:16:51.632Z,7.53
2019-03-27T14:18:05.525Z,7.85
2019-03-27T14:19:13.519Z,8.40
2019-03-27T14:20:19.973Z,7.67
2019-03-27T14:21:25.813Z,7.97